KELP Airport (El Paso Intl) Information

FAA: ELP - ICAO: KELP

KELP Airport Location

State Texas
County El Paso
City El Paso
KELP Airport is 4 miles northeast of El Paso, TX.
Latitude 31-48-26.4000N
Longitude 106-22-34.9000W
Elevation 3,961ft

KELP Airport METARs

METAR KELP 262351Z 16006KT 10SM BKN042 BKN100 BKN160 OVC250 11/M06 A3018 RMK AO2 SLP198 T01111061 10122 20111 57006
Altimeter 30.18"
Temperature 11.1°C (52.0°F)
Wind 160° at 6KT
Clouds broken at 4,200ft broken at 10,000ft broken at 16,000ft overcast at 25,000ft
Visibility 10.0mi
Time observed: 2021-11-26T23:51:00Z

KELP Airport Details

Status Operational
Activation November 1938
Ownership Public
Usage Public
Chart EL PASO
ATC on-site Yes
Beacon schedule sunset-sunrise
Beacon color clear green

KELP Airport Contacts

Owner CITY OF EL PASO
Owner address 300 N. CAMPBELL, EL PASO, TX 79901
Owner phone (915) 212-0000
Manager RICK MCCLURE
Manager address 303 MAGNOLIA, VICTORIA, TX 77901
Manager phone 361-652-4163

KELP Airport (El Paso Intl) Radio Frequencies

KELP (Airport) Radio Frequencies

UNICOM 122.95
Common traffic advisory frequency (CTAF) N/A